createdAt,value
2023-04-19T00:00:14.643Z,96886.06
2023-04-19T00:02:49.329Z,96885.31
2023-04-19T00:05:24.642Z,96879.19
2023-04-19T00:07:56.112Z,96874.59
2023-04-19T00:10:27.670Z,96869.50
2023-04-19T00:12:59.190Z,96877.16
2023-04-19T00:15:30.687Z,96874.84
2023-04-19T00:18:02.384Z,96877.41
2023-04-19T00:20:34.068Z,96872.25
2023-04-19T00:23:05.630Z,96870.25
2023-04-19T00:25:37.298Z,96882.25
2023-04-19T00:28:12.010Z,96875.34
2023-04-19T00:30:43.597Z,96863.88
2023-04-19T00:33:15.329Z,96868.47
2023-04-19T00:35:46.902Z,96870.00
2023-04-19T00:38:18.629Z,96868.22
2023-04-19T00:40:50.167Z,96858.25
2023-04-19T00:43:21.681Z,96865.41
2023-04-19T00:45:53.842Z,96863.13
2023-04-19T00:48:25.870Z,96861.81
2023-04-19T00:50:57.642Z,96861.84
2023-04-19T00:53:29.309Z,96852.88
2023-04-19T00:56:04.459Z,96854.66
2023-04-19T00:58:38.604Z,96851.09
2023-04-19T01:01:10.223Z,96851.59
2023-04-19T01:03:42.250Z,96863.88
2023-04-19T01:06:16.044Z,96853.13
2023-04-19T01:08:48.239Z,96858.78
2023-04-19T01:11:19.888Z,96856.19
2023-04-19T01:13:52.117Z,96855.19
2023-04-19T01:16:24.674Z,96847.03
2023-04-19T01:18:56.270Z,96847.28
2023-04-19T01:21:30.497Z,96840.88
2023-04-19T01:24:05.758Z,96839.88
2023-04-19T01:26:37.199Z,96844.22
2023-04-19T01:29:08.821Z,96840.63
2023-04-19T01:31:40.445Z,96837.31
2023-04-19T01:34:11.982Z,96833.72
2023-04-19T01:36:43.494Z,96836.81
2023-04-19T01:39:15.085Z,96830.19
2023-04-19T01:41:46.647Z,96834.50
2023-04-19T01:44:18.208Z,96832.72
2023-04-19T01:46:49.972Z,96824.03
2023-04-19T01:49:21.744Z,96826.06
2023-04-19T01:51:53.288Z,96820.22
2023-04-19T01:54:24.978Z,96824.00
2023-04-19T01:56:57.099Z,96823.53
2023-04-19T01:59:28.622Z,96822.47
2023-04-19T02:02:00.291Z,96821.19
2023-04-19T02:04:34.594Z,96827.03
2023-04-19T02:07:06.250Z,96827.44
2023-04-19T02:09:38.797Z,96820.78
2023-04-19T02:12:10.418Z,96824.91
2023-04-19T02:14:41.982Z,96816.72
2023-04-19T02:17:13.476Z,96819.75
2023-04-19T02:19:45.019Z,96817.34
2023-04-19T02:22:18.845Z,96811.81
2023-04-19T02:24:51.007Z,96810.31
2023-04-19T02:27:22.477Z,96819.28
2023-04-19T02:29:54.064Z,96808.50
2023-04-19T02:32:25.979Z,96815.41
2023-04-19T02:34:57.493Z,96817.09
2023-04-19T02:37:29.066Z,96807.66
2023-04-19T02:40:00.591Z,96811.00
2023-04-19T02:42:34.574Z,96804.03
2023-04-19T02:45:07.122Z,96809.41
2023-04-19T02:47:38.744Z,96803.50
2023-04-19T02:50:11.855Z,96802.19
2023-04-19T02:52:43.422Z,96807.53
2023-04-19T02:55:17.979Z,96797.34
2023-04-19T02:57:49.922Z,96800.47
2023-04-19T03:00:21.492Z,96798.28
2023-04-19T03:02:55.308Z,96800.03
2023-04-19T03:05:26.996Z,96800.69
2023-04-19T03:07:58.739Z,96801.53
2023-04-19T03:10:30.348Z,96804.34
2023-04-19T03:13:01.890Z,96802.16
2023-04-19T03:15:33.430Z,96797.41
2023-04-19T03:18:05.054Z,96801.69
2023-04-19T03:20:36.611Z,96794.47
2023-04-19T03:23:08.370Z,96786.44
2023-04-19T03:25:40.343Z,96795.94
2023-04-19T03:28:11.822Z,96782.75
2023-04-19T03:30:43.441Z,96791.34
2023-04-19T03:33:14.946Z,96788.59
2023-04-19T03:35:46.538Z,96784.41
2023-04-19T03:38:21.269Z,96782.25
2023-04-19T03:40:52.790Z,96791.50
2023-04-19T03:43:24.498Z,96788.44
2023-04-19T03:45:56.149Z,96785.84
2023-04-19T03:48:27.987Z,96787.31
2023-04-19T03:50:59.484Z,96783.78
2023-04-19T03:53:30.990Z,96784.03
2023-04-19T03:56:03.010Z,96786.31
2023-04-19T03:58:34.586Z,96783.63
2023-04-19T04:01:08.363Z,96779.19
2023-04-19T04:03:40.188Z,96779.09
2023-04-19T04:06:12.279Z,96780.44
2023-04-19T04:08:43.893Z,96783.56
2023-04-19T04:11:15.386Z,96775.56
2023-04-19T04:13:47.010Z,96776.69
2023-04-19T04:16:18.626Z,96786.75
2023-04-19T04:18:52.526Z,96785.66
2023-04-19T04:21:24.740Z,96783.38
2023-04-19T04:23:56.219Z,96774.75
2023-04-19T04:26:30.754Z,96783.09
2023-04-19T04:29:03.041Z,96784.03
2023-04-19T04:31:36.182Z,96786.72
2023-04-19T04:34:09.181Z,96779.44
2023-04-19T04:36:41.761Z,96783.72
2023-04-19T04:39:13.326Z,96786.91
2023-04-19T04:41:44.902Z,96793.72
2023-04-19T04:44:16.674Z,96797.03
2023-04-19T04:46:48.190Z,96793.41
2023-04-19T04:49:19.778Z,96791.41
2023-04-19T04:51:51.317Z,96792.44
2023-04-19T04:54:23.042Z,96789.47
2023-04-19T04:56:54.548Z,96792.78
2023-04-19T04:59:26.734Z,96789.94
2023-04-19T05:01:59.022Z,96792.13
2023-04-19T05:04:30.633Z,96790.63
2023-04-19T05:07:02.514Z,96796.25
2023-04-19T05:09:34.063Z,96789.44
2023-04-19T05:12:06.083Z,96804.59
2023-04-19T05:14:40.786Z,96796.25
2023-04-19T05:17:12.370Z,96798.13
2023-04-19T05:19:44.111Z,96802.00
2023-04-19T05:22:16.327Z,96794.31
2023-04-19T05:24:50.096Z,96792.63
2023-04-19T05:27:21.723Z,96797.31
2023-04-19T05:29:53.598Z,96801.69
2023-04-19T05:32:25.263Z,96807.91
2023-04-19T05:34:56.870Z,96801.00
2023-04-19T05:37:28.459Z,96805.63
2023-04-19T05:40:00.169Z,96806.56
2023-04-19T05:42:38.759Z,96812.91
2023-04-19T05:45:11.310Z,96807.84
2023-04-19T05:47:42.918Z,96800.97
2023-04-19T05:50:17.881Z,96809.06
2023-04-19T05:52:49.447Z,96806.38
2023-04-19T05:55:21.196Z,96810.09
2023-04-19T05:57:52.739Z,96817.75
2023-04-19T06:00:24.623Z,96809.91
2023-04-19T06:02:56.590Z,96812.25
2023-04-19T06:05:28.223Z,96809.59
2023-04-19T06:08:02.783Z,96814.47
2023-04-19T06:10:48.990Z,96812.13
2023-04-19T06:13:29.115Z,96811.59
2023-04-19T06:16:00.856Z,96811.91
2023-04-19T06:18:32.480Z,96815.84
2023-04-19T06:21:04.189Z,96814.19
2023-04-19T06:23:35.841Z,96815.31
2023-04-19T06:26:10.581Z,96811.88
2023-04-19T06:28:42.133Z,96811.03
2023-04-19T06:31:13.755Z,96818.13
2023-04-19T06:33:46.038Z,96820.34
2023-04-19T06:36:17.676Z,96813.75
2023-04-19T06:38:50.356Z,96820.56
2023-04-19T06:41:23.080Z,96819.25
2023-04-19T06:43:54.641Z,96819.88
2023-04-19T06:46:27.555Z,96824.34
2023-04-19T06:48:59.262Z,96826.69
2023-04-19T06:51:31.005Z,96822.56
2023-04-19T06:54:02.542Z,96825.94
2023-04-19T06:56:46.621Z,96827.81
2023-04-19T06:59:20.662Z,96830.59
2023-04-19T07:01:52.237Z,96827.03
2023-04-19T07:04:25.443Z,96832.22
2023-04-19T07:06:57.281Z,96828.94
2023-04-19T07:09:36.838Z,96833.06
2023-04-19T07:12:08.772Z,96833.25
2023-04-19T07:14:40.350Z,96826.63
2023-04-19T07:17:13.782Z,96835.66
2023-04-19T07:19:48.914Z,96826.63
2023-04-19T07:22:22.130Z,96833.75
2023-04-19T07:24:54.363Z,96823.38
2023-04-19T07:27:26.080Z,96819.72
2023-04-19T07:29:57.625Z,96833.38
2023-04-19T07:32:29.422Z,96834.47
2023-04-19T07:35:01.752Z,96828.34
2023-04-19T07:37:33.241Z,96822.41
2023-04-19T07:40:06.144Z,96829.41
2023-04-19T07:42:37.687Z,96826.97
2023-04-19T07:45:12.751Z,96828.13
2023-04-19T07:47:44.246Z,96822.84
2023-04-19T07:50:16.076Z,96830.19
2023-04-19T07:52:50.853Z,96823.72
2023-04-19T07:55:24.173Z,96817.47
2023-04-19T07:57:55.844Z,96820.25
2023-04-19T08:00:29.769Z,96811.72
2023-04-19T08:03:02.301Z,96814.44
2023-04-19T08:05:34.768Z,96820.41
2023-04-19T08:08:06.386Z,96816.44
2023-04-19T08:10:38.136Z,96818.13
2023-04-19T08:13:09.948Z,96818.06
2023-04-19T08:18:19.722Z,96827.59
2023-04-19T08:20:53.571Z,96812.63
2023-04-19T08:23:29.707Z,96815.63
2023-04-19T08:26:09.517Z,96812.75
2023-04-19T08:28:41.077Z,96819.78
2023-04-19T08:31:12.655Z,96819.25
2023-04-19T08:33:44.169Z,96813.56
2023-04-19T08:36:21.999Z,96812.22
2023-04-19T08:39:06.636Z,96821.16
2023-04-19T08:41:40.267Z,96804.44
2023-04-19T08:44:17.756Z,96817.97
2023-04-19T08:46:54.377Z,96810.28
2023-04-19T08:49:27.484Z,96811.13
2023-04-19T08:52:00.011Z,96809.72
2023-04-19T08:54:32.526Z,96806.00
2023-04-19T08:57:05.375Z,96809.28
2023-04-19T08:59:37.071Z,96801.63
2023-04-19T09:02:08.738Z,96802.59
2023-04-19T09:04:40.780Z,96802.59
2023-04-19T09:07:24.524Z,96799.50
2023-04-19T09:10:16.496Z,96799.91
2023-04-19T09:13:05.810Z,96796.63
2023-04-19T09:15:40.922Z,96796.00
2023-04-19T09:18:12.723Z,96806.22
2023-04-19T09:20:45.515Z,96793.88
2023-04-19T09:23:18.954Z,96791.75
2023-04-19T09:28:39.041Z,96782.00
2023-04-19T09:31:33.149Z,96771.41
2023-04-19T09:34:17.100Z,96781.81
2023-04-19T09:36:54.562Z,96779.97
2023-04-19T09:39:33.412Z,96777.84
2023-04-19T09:42:04.973Z,96780.19
2023-04-19T09:45:05.912Z,96778.41
2023-04-19T09:47:32.669Z,96776.44
2023-04-19T09:50:21.988Z,96767.25
2023-04-19T09:52:55.469Z,96773.03
2023-04-19T09:55:33.434Z,96765.59
2023-04-19T09:58:10.221Z,96765.19
2023-04-19T10:00:49.918Z,96757.34
2023-04-19T10:03:27.748Z,96764.94
2023-04-19T10:06:06.792Z,96760.03
2023-04-19T10:08:43.539Z,96757.16
2023-04-19T10:11:15.640Z,96760.72
2023-04-19T10:13:48.564Z,96754.97
2023-04-19T10:16:20.816Z,96760.94
2023-04-19T10:18:53.098Z,96756.72
2023-04-19T10:21:28.222Z,96769.78
2023-04-19T10:24:00.880Z,96755.53
2023-04-19T10:27:12.463Z,96765.22
2023-04-19T10:30:08.033Z,96760.63
2023-04-19T10:32:41.599Z,96761.28
2023-04-19T10:35:37.215Z,96752.47
2023-04-19T10:38:12.862Z,96756.63
2023-04-19T10:40:56.459Z,96750.81
2023-04-19T10:43:35.263Z,96743.22
2023-04-19T10:46:23.274Z,96743.97
2023-04-19T10:48:59.257Z,96738.63
2023-04-19T10:51:36.984Z,96731.13
2023-04-19T10:54:30.939Z,96732.66
2023-04-19T10:57:12.019Z,96730.97
2023-04-19T10:59:44.399Z,96726.38
2023-04-19T11:02:22.237Z,96721.00
2023-04-19T11:04:53.890Z,96713.06
2023-04-19T11:07:25.781Z,96709.09
2023-04-19T11:09:57.394Z,96710.56
2023-04-19T11:12:28.948Z,96699.84
2023-04-19T11:15:01.071Z,96696.81
2023-04-19T11:17:33.184Z,96696.50
2023-04-19T11:20:07.256Z,96697.34
2023-04-19T11:22:47.506Z,96698.56
2023-04-19T11:25:22.242Z,96689.72
2023-04-19T11:27:53.837Z,96693.03
2023-04-19T11:30:30.381Z,96691.03
2023-04-19T11:33:01.997Z,96691.50
2023-04-19T11:35:33.722Z,96691.44
2023-04-19T11:38:05.561Z,96686.25
2023-04-19T11:40:37.593Z,96681.97
2023-04-19T11:43:09.260Z,96681.53
2023-04-19T11:45:40.996Z,96677.78
2023-04-19T11:48:16.217Z,96670.13
2023-04-19T11:50:49.797Z,96685.56
2023-04-19T11:53:24.961Z,96677.47
2023-04-19T11:56:03.569Z,96670.13
2023-04-19T11:58:48.180Z,96669.25
2023-04-19T12:01:22.090Z,96666.19
2023-04-19T12:03:57.609Z,96669.47
2023-04-19T12:06:32.452Z,96661.66
2023-04-19T12:09:09.358Z,96665.66
2023-04-19T12:11:50.901Z,96665.75
2023-04-19T12:14:23.268Z,96662.00
2023-04-19T12:17:12.023Z,96658.19
2023-04-19T12:19:46.787Z,96660.44
2023-04-19T12:22:20.819Z,96657.03
2023-04-19T12:24:54.031Z,96655.75
2023-04-19T12:27:26.063Z,96651.72
2023-04-19T12:29:57.581Z,96656.31
2023-04-19T12:32:29.460Z,96650.66
2023-04-19T12:35:01.036Z,96649.16
2023-04-19T12:37:32.658Z,96651.06
2023-04-19T12:40:05.185Z,96651.41
2023-04-19T12:42:36.726Z,96655.06
2023-04-19T12:45:09.150Z,96649.00
2023-04-19T12:47:41.698Z,96638.25
2023-04-19T12:50:16.472Z,96634.50
2023-04-19T12:52:48.066Z,96632.88
2023-04-19T12:55:20.105Z,96630.16
2023-04-19T12:57:51.784Z,96634.78
2023-04-19T13:00:24.622Z,96632.59
2023-04-19T13:02:56.238Z,96625.84
2023-04-19T13:05:27.944Z,96619.16
2023-04-19T13:08:00.198Z,96615.56
2023-04-19T13:10:31.988Z,96608.91
2023-04-19T13:13:06.689Z,96620.38
2023-04-19T13:15:40.741Z,96607.97
2023-04-19T13:18:12.522Z,96606.28
2023-04-19T13:20:44.123Z,96600.22
2023-04-19T13:23:15.960Z,96602.91
2023-04-19T13:25:47.512Z,96593.78
2023-04-19T13:28:19.014Z,96590.53
2023-04-19T13:30:50.566Z,96585.41
2023-04-19T13:33:24.569Z,96574.16
2023-04-19T13:35:56.142Z,96574.28
2023-04-19T13:38:27.780Z,96570.88
2023-04-19T13:41:02.470Z,96569.63
2023-04-19T13:43:34.474Z,96559.38
2023-04-19T13:46:06.631Z,96565.03
2023-04-19T13:48:38.375Z,96564.31
2023-04-19T13:51:11.969Z,96556.03
2023-04-19T13:53:43.588Z,96550.19
2023-04-19T13:56:15.199Z,96551.50
2023-04-19T13:58:46.825Z,96551.03
2023-04-19T14:01:18.677Z,96544.00
2023-04-19T14:03:50.392Z,96538.47
2023-04-19T14:06:22.041Z,96536.13
2023-04-19T14:08:56.600Z,96529.75
2023-04-19T14:11:28.676Z,96526.41
2023-04-19T14:14:03.165Z,96524.81
2023-04-19T14:16:34.739Z,96523.16
2023-04-19T14:19:06.379Z,96526.88
2023-04-19T14:21:39.007Z,96520.59
2023-04-19T14:24:13.964Z,96517.94
2023-04-19T14:26:56.810Z,96519.44
2023-04-19T14:29:38.964Z,96513.56
2023-04-19T14:32:23.552Z,96508.16
2023-04-19T14:34:56.437Z,96515.25
2023-04-19T14:37:28.627Z,96514.66
2023-04-19T14:40:00.217Z,96503.19
2023-04-19T14:42:31.775Z,96501.06
2023-04-19T14:45:03.635Z,96506.66
2023-04-19T14:47:35.180Z,96500.56
2023-04-19T14:50:07.318Z,96501.63
2023-04-19T14:52:39.100Z,96492.91
2023-04-19T14:55:13.597Z,96497.66
2023-04-19T14:57:45.106Z,96488.81
2023-04-19T15:00:17.102Z,96489.50
2023-04-19T15:02:51.581Z,96479.63
2023-04-19T15:05:29.481Z,96494.66
2023-04-19T15:08:01.074Z,96489.09
2023-04-19T15:10:32.697Z,96492.59
2023-04-19T15:13:07.480Z,96488.59
2023-04-19T15:15:42.134Z,96480.78
2023-04-19T15:18:13.682Z,96485.22
2023-04-19T15:20:45.260Z,96484.91
2023-04-19T15:23:16.809Z,96478.72
2023-04-19T15:25:49.724Z,96478.97
2023-04-19T15:28:23.581Z,96488.88
2023-04-19T15:31:01.801Z,96505.97
2023-04-19T15:33:35.621Z,96505.69
2023-04-19T15:36:07.336Z,96501.69
2023-04-19T15:38:38.952Z,96497.19
2023-04-19T15:41:11.140Z,96500.03
2023-04-19T15:43:42.691Z,96507.13
2023-04-19T15:46:15.112Z,96492.63
2023-04-19T15:48:48.271Z,96494.44
2023-04-19T15:51:21.013Z,96494.38
2023-04-19T15:53:52.511Z,96493.28
2023-04-19T15:56:24.096Z,96497.06
2023-04-19T15:58:55.656Z,96500.09
2023-04-19T16:01:27.349Z,96495.25
2023-04-19T16:04:01.926Z,96499.78
2023-04-19T16:06:35.762Z,96496.38
2023-04-19T16:09:08.271Z,96505.59
2023-04-19T16:11:39.809Z,96501.91
2023-04-19T16:14:11.321Z,96511.19
2023-04-19T16:16:42.973Z,96514.88
2023-04-19T16:19:14.928Z,96511.34
2023-04-19T16:21:46.657Z,96517.16
2023-04-19T16:24:18.202Z,96523.69
2023-04-19T16:26:49.771Z,96521.84
2023-04-19T16:29:21.287Z,96524.63
2023-04-19T16:31:53.052Z,96535.91
2023-04-19T16:34:27.659Z,96536.03
2023-04-19T16:36:59.386Z,96534.53
2023-04-19T16:39:31.006Z,96535.94
2023-04-19T16:42:02.546Z,96534.66
2023-04-19T16:44:34.094Z,96531.69
2023-04-19T16:47:08.020Z,96530.63
2023-04-19T16:49:39.545Z,96532.63
2023-04-19T16:52:11.068Z,96522.81
2023-04-19T16:54:45.663Z,96520.72
2023-04-19T16:57:17.247Z,96515.38
2023-04-19T16:59:52.037Z,96528.19
2023-04-19T17:02:23.741Z,96505.28
2023-04-19T17:04:56.371Z,96518.13
2023-04-19T17:07:28.115Z,96507.16
2023-04-19T17:09:59.643Z,96520.91
2023-04-19T17:12:31.228Z,96516.88
2023-04-19T17:15:03.545Z,96526.56
2023-04-19T17:17:35.320Z,96521.47
2023-04-19T17:20:10.060Z,96518.38
2023-04-19T17:22:41.645Z,96520.94
2023-04-19T17:25:13.296Z,96521.69
2023-04-19T17:27:45.108Z,96522.97
2023-04-19T17:30:16.671Z,96515.81
2023-04-19T17:32:48.337Z,96519.94
2023-04-19T17:35:20.058Z,96518.13
2023-04-19T17:37:52.348Z,96514.56
2023-04-19T17:40:23.886Z,96509.19
2023-04-19T17:42:55.520Z,96518.28
2023-04-19T17:45:27.037Z,96531.09
2023-04-19T17:47:58.642Z,96520.78
2023-04-19T17:50:30.241Z,96527.78
2023-04-19T17:53:04.745Z,96525.63
2023-04-19T17:55:36.328Z,96534.19
2023-04-19T17:58:11.000Z,96536.53
2023-04-19T18:00:42.583Z,96539.84
2023-04-19T18:03:14.493Z,96535.44
2023-04-19T18:05:46.111Z,96539.28
2023-04-19T18:08:17.763Z,96541.53
2023-04-19T18:10:49.403Z,96548.16
2023-04-19T18:13:21.098Z,96540.34
2023-04-19T18:15:52.612Z,96553.69
2023-04-19T18:18:24.099Z,96548.97
2023-04-19T18:20:55.626Z,96554.41
2023-04-19T18:23:27.479Z,96545.31
2023-04-19T18:26:05.177Z,96537.81
2023-04-19T18:28:37.636Z,96542.41
2023-04-19T18:31:09.661Z,96542.00
2023-04-19T18:33:41.443Z,96550.59
2023-04-19T18:36:15.052Z,96549.47
2023-04-19T18:38:46.666Z,96544.50
2023-04-19T18:41:18.306Z,96547.78
2023-04-19T18:44:08.181Z,96548.69
2023-04-19T18:46:42.006Z,96557.78
2023-04-19T18:49:13.544Z,96555.72
2023-04-19T18:51:45.335Z,96555.47
2023-04-19T18:54:19.358Z,96560.41
2023-04-19T18:57:21.049Z,96557.50
2023-04-19T18:59:45.778Z,96569.19
2023-04-19T19:02:17.517Z,96585.16
2023-04-19T19:04:57.139Z,96584.22
2023-04-19T19:07:36.824Z,96581.53
2023-04-19T19:10:19.417Z,96596.59
2023-04-19T19:12:53.294Z,96598.31
2023-04-19T19:15:25.829Z,96593.66
2023-04-19T19:17:59.554Z,96600.03
2023-04-19T19:20:31.305Z,96602.59
2023-04-19T19:23:03.243Z,96602.22
2023-04-19T19:25:35.522Z,96616.16
2023-04-19T19:28:10.077Z,96625.69
2023-04-19T19:30:44.958Z,96624.75
2023-04-19T19:33:17.857Z,96619.53
2023-04-19T19:35:49.551Z,96627.47
2023-04-19T19:38:21.138Z,96613.22
2023-04-19T19:41:34.648Z,96620.56
2023-04-19T19:43:47.224Z,96619.81
2023-04-19T19:46:22.405Z,96623.09
2023-04-19T19:48:54.630Z,96618.03
2023-04-19T19:51:53.318Z,96622.53
2023-04-19T19:54:20.756Z,96626.19
2023-04-19T19:57:34.580Z,96610.09
2023-04-19T19:59:51.327Z,96621.19
2023-04-19T20:02:29.705Z,96619.81
2023-04-19T20:05:06.731Z,96618.13
2023-04-19T20:08:00.554Z,96616.88
2023-04-19T20:10:32.665Z,96609.16
2023-04-19T20:13:07.409Z,96600.72
2023-04-19T20:15:43.086Z,96604.44
2023-04-19T20:18:14.877Z,96604.50
2023-04-19T20:20:47.178Z,96598.69
2023-04-19T20:23:21.472Z,96596.34
2023-04-19T20:25:53.140Z,96601.72
2023-04-19T20:28:27.643Z,96592.44
2023-04-19T20:30:59.244Z,96590.34
2023-04-19T20:33:31.118Z,96588.56
2023-04-19T20:36:10.986Z,96589.03
2023-04-19T20:38:42.756Z,96592.28
2023-04-19T20:41:18.545Z,96594.47
2023-04-19T20:43:50.568Z,96596.56
2023-04-19T20:46:22.435Z,96587.81
2023-04-19T20:48:54.210Z,96589.78
2023-04-19T20:51:26.564Z,96589.97
2023-04-19T20:53:58.048Z,96588.50
2023-04-19T20:56:29.604Z,96583.69
2023-04-19T20:59:01.078Z,96591.03
2023-04-19T21:01:33.920Z,96585.06
2023-04-19T21:04:06.352Z,96581.69
2023-04-19T21:06:38.119Z,96582.41
2023-04-19T21:09:09.662Z,96582.47
2023-04-19T21:11:48.294Z,96579.47
2023-04-19T21:14:19.878Z,96582.38
2023-04-19T21:16:51.391Z,96571.47
2023-04-19T21:19:22.887Z,96578.56
2023-04-19T21:21:54.491Z,96572.75
2023-04-19T21:24:26.315Z,96560.06
2023-04-19T21:26:57.991Z,96557.22
2023-04-19T21:29:29.485Z,96563.59
2023-04-19T21:32:01.402Z,96559.94
2023-04-19T21:34:32.998Z,96561.00
2023-04-19T21:37:04.595Z,96551.22
2023-04-19T21:39:39.008Z,96553.81
2023-04-19T21:42:11.245Z,96554.81
2023-04-19T21:44:42.757Z,96563.19
2023-04-19T21:47:14.296Z,96564.88
2023-04-19T21:49:47.072Z,96552.81
2023-04-19T21:52:18.875Z,96553.88
2023-04-19T21:54:50.595Z,96556.91
2023-04-19T21:57:26.849Z,96552.34
2023-04-19T22:00:01.414Z,96554.94
2023-04-19T22:02:33.304Z,96549.38
2023-04-19T22:05:07.255Z,96552.41
2023-04-19T22:07:42.361Z,96548.63
2023-04-19T22:10:13.876Z,96551.19
2023-04-19T22:12:55.494Z,96543.50
2023-04-19T22:15:29.841Z,96550.97
2023-04-19T22:18:03.987Z,96537.66
2023-04-19T22:20:35.906Z,96535.63
2023-04-19T22:23:07.396Z,96529.50
2023-04-19T22:25:38.945Z,96523.38
2023-04-19T22:28:10.879Z,96520.06
2023-04-19T22:30:42.420Z,96523.31
2023-04-19T22:33:13.907Z,96524.34
2023-04-19T22:35:45.772Z,96525.38
2023-04-19T22:38:17.273Z,96521.03
2023-04-19T22:40:48.821Z,96513.41
2023-04-19T22:43:21.611Z,96515.88
2023-04-19T22:45:53.183Z,96511.88
2023-04-19T22:48:24.885Z,96499.84
2023-04-19T22:50:56.722Z,96492.28
2023-04-19T22:53:28.241Z,96489.72
2023-04-19T22:55:59.759Z,96498.94
2023-04-19T22:58:31.294Z,96493.13
2023-04-19T23:01:03.190Z,96488.31
2023-04-19T23:03:34.814Z,96494.34
2023-04-19T23:06:07.911Z,96493.03
2023-04-19T23:08:40.267Z,96483.81
2023-04-19T23:11:13.988Z,96481.81
2023-04-19T23:13:47.377Z,96475.44
2023-04-19T23:16:19.244Z,96473.44
2023-04-19T23:18:50.836Z,96470.91
2023-04-19T23:21:22.364Z,96467.31
2023-04-19T23:23:53.863Z,96467.84
2023-04-19T23:26:25.529Z,96466.31
2023-04-19T23:28:59.190Z,96463.31
2023-04-19T23:31:30.822Z,96458.56
2023-04-19T23:34:02.438Z,96457.16
2023-04-19T23:36:33.966Z,96448.50
2023-04-19T23:39:05.508Z,96451.34
2023-04-19T23:41:37.039Z,96438.09
2023-04-19T23:44:08.748Z,96436.59
2023-04-19T23:46:40.700Z,96437.88
2023-04-19T23:49:12.514Z,96417.50
2023-04-19T23:51:53.039Z,96425.63
2023-04-19T23:54:28.024Z,96424.09
2023-04-19T23:57:01.725Z,96419.53
2023-04-19T23:59:33.342Z,96416.50
